Time;durP1;ratioP1;P1;durP2;ratioP2;P2;SDS_P1;SDS_P2;PMS_P1;PMS_P2;Temp;Humidity;BMP_temperature;BMP_pressure;BME280_temperature;BME280_humidity;BME280_pressure;Samples;Min_cycle;Max_cycle;Signal;HPM_P1;HPM_P2
2020/12/21 00:01:25;;;;;;;55.85;23.20;;;;;;;;;;5031670;28;20052;-68
2020/12/21 00:03:50;;;;;;;58.65;22.52;;;;;;;;;;5035134;28;20104;-68
2020/12/21 00:06:16;;;;;;;36.63;22.17;;;;;;;;;;5036342;28;21140;-68
2020/12/21 00:08:42;;;;;;;65.70;22.05;;;;;;;;;;5032109;28;20096;-69
2020/12/21 00:11:08;;;;;;;42.80;21.42;;;;;;;;;;5035871;28;20041;-69
2020/12/21 00:13:33;;;;;;;49.50;21.67;;;;;;;;;;5035269;28;20048;-68
2020/12/21 00:15:59;;;;;;;88.18;22.58;;;;;;;;;;5034430;28;20049;-68
2020/12/21 00:18:24;;;;;;;127.72;25.08;;;;;;;;;;5032986;28;20074;-68
2020/12/21 00:20:50;;;;;;;108.40;24.10;;;;;;;;;;5033649;28;20095;-68
2020/12/21 00:23:16;;;;;;;73.30;22.80;;;;;;;;;;5035201;28;20063;-68
2020/12/21 00:25:41;;;;;;;32.30;22.05;;;;;;;;;;5029515;28;20039;-68
2020/12/21 00:28:07;;;;;;;32.13;20.48;;;;;;;;;;5033807;28;20037;-68
2020/12/21 00:30:33;;;;;;;49.50;23.00;;;;;;;;;;5033793;28;20510;-68
2020/12/21 00:32:58;;;;;;;92.38;24.88;;;;;;;;;;5034354;28;20021;-68
2020/12/21 00:35:23;;;;;;;34.92;21.30;;;;;;;;;;5033904;28;20408;-69
2020/12/21 00:37:49;;;;;;;45.22;21.83;;;;;;;;;;5032999;28;20079;-68
2020/12/21 00:40:14;;;;;;;69.53;22.35;;;;;;;;;;5035703;28;20040;-68
2020/12/21 00:42:39;;;;;;;37.50;22.23;;;;;;;;;;5033122;28;20445;-68
2020/12/21 00:45:05;;;;;;;37.50;21.23;;;;;;;;;;5034800;28;20041;-69
2020/12/21 00:47:33;;;;;;;50.78;22.50;;;;;;;;;;5035006;28;20037;-68
2020/12/21 00:49:59;;;;;;;36.13;22.10;;;;;;;;;;5035017;28;20037;-68
2020/12/21 00:52:24;;;;;;;54.92;22.33;;;;;;;;;;5032962;28;20454;-69
2020/12/21 00:54:50;;;;;;;47.90;21.38;;;;;;;;;;5032624;28;20040;-68
2020/12/21 00:57:15;;;;;;;71.25;22.80;;;;;;;;;;5036448;28;20043;-68
2020/12/21 00:59:40;;;;;;;67.28;23.17;;;;;;;;;;5032015;28;20033;-68
2020/12/21 01:02:06;;;;;;;59.00;21.48;;;;;;;;;;5034784;28;20044;-68
2020/12/21 01:04:31;;;;;;;71.93;22.23;;;;;;;;;;5032930;28;20037;-69
2020/12/21 01:06:57;;;;;;;59.85;22.35;;;;;;;;;;5032129;28;20053;-69
2020/12/21 01:09:22;;;;;;;74.53;22.65;;;;;;;;;;5033807;28;20140;-68
2020/12/21 01:11:48;;;;;;;72.53;20.85;;;;;;;;;;5032594;28;20025;-68
2020/12/21 01:14:13;;;;;;;85.32;22.88;;;;;;;;;;5034749;28;20036;-68
2020/12/21 01:16:39;;;;;;;74.25;22.38;;;;;;;;;;5029175;28;20044;-68
2020/12/21 01:19:04;;;;;;;81.55;24.17;;;;;;;;;;5032615;28;20037;-68
2020/12/21 01:21:31;;;;;;;68.13;25.02;;;;;;;;;;5033719;28;20129;-69
2020/12/21 01:23:59;;;;;;;59.88;23.95;;;;;;;;;;5033240;28;20108;-69
2020/12/21 01:26:25;;;;;;;69.07;29.83;;;;;;;;;;5030025;28;20052;-68
2020/12/21 01:28:51;;;;;;;100.15;30.05;;;;;;;;;;5032449;28;20060;-68
2020/12/21 01:31:18;;;;;;;54.67;25.67;;;;;;;;;;5034360;28;20057;-68
2020/12/21 01:33:44;;;;;;;61.00;26.08;;;;;;;;;;5026144;28;20041;-68
2020/12/21 01:36:09;;;;;;;78.03;28.15;;;;;;;;;;5033204;28;20076;-68
2020/12/21 01:38:35;;;;;;;44.05;24.15;;;;;;;;;;5034046;28;20021;-68
2020/12/21 01:41:00;;;;;;;67.10;24.95;;;;;;;;;;5032631;28;20594;-68
2020/12/21 01:43:25;;;;;;;59.10;31.90;;;;;;;;;;5033645;28;20115;-68
2020/12/21 01:45:51;;;;;;;53.28;28.88;;;;;;;;;;5033319;28;20603;-68
2020/12/21 01:48:16;;;;;;;88.60;26.25;;;;;;;;;;5034282;28;20033;-68
2020/12/21 01:50:42;;;;;;;60.95;29.10;;;;;;;;;;5029776;28;20045;-68
2020/12/21 01:53:10;;;;;;;60.20;28.63;;;;;;;;;;5037843;28;20108;-68
2020/12/21 01:55:38;;;;;;;61.03;28.25;;;;;;;;;;5037481;28;20048;-69
2020/12/21 01:58:04;;;;;;;77.57;28.83;;;;;;;;;;5039225;28;20055;-68
2020/12/21 02:00:29;;;;;;;64.20;31.73;;;;;;;;;;5035108;28;20593;-68
2020/12/21 02:02:55;;;;;;;68.82;29.50;;;;;;;;;;5037414;28;20029;-68
2020/12/21 02:05:21;;;;;;;61.75;29.50;;;;;;;;;;5037587;28;20030;-68
2020/12/21 02:07:46;;;;;;;46.30;28.42;;;;;;;;;;5034838;28;20577;-68
2020/12/21 02:10:13;;;;;;;57.78;27.30;;;;;;;;;;5039749;28;20075;-69
2020/12/21 02:12:38;;;;;;;59.50;29.20;;;;;;;;;;5036234;28;20060;-68
2020/12/21 02:15:04;;;;;;;41.63;27.65;;;;;;;;;;5038377;28;20022;-69
2020/12/21 02:17:29;;;;;;;111.97;31.58;;;;;;;;;;5032261;28;20068;-68
2020/12/21 02:19:54;;;;;;;100.88;32.22;;;;;;;;;;5037178;28;20025;-69
2020/12/21 02:22:23;;;;;;;50.47;29.10;;;;;;;;;;5036775;28;20029;-68
2020/12/21 02:24:48;;;;;;;56.67;30.48;;;;;;;;;;5034350;28;20043;-68
2020/12/21 02:27:13;;;;;;;57.00;29.30;;;;;;;;;;5038149;28;20627;-68
2020/12/21 02:29:39;;;;;;;66.43;29.67;;;;;;;;;;5036586;28;20376;-68
2020/12/21 02:32:05;;;;;;;78.22;29.48;;;;;;;;;;5039140;28;20490;-69
2020/12/21 02:34:30;;;;;;;72.38;30.10;;;;;;;;;;5035710;28;20040;-68
2020/12/21 02:36:56;;;;;;;73.53;27.58;;;;;;;;;;5035953;28;20033;-69
2020/12/21 02:39:22;;;;;;;49.63;28.33;;;;;;;;;;5036980;28;20449;-68
2020/12/21 02:41:48;;;;;;;48.58;29.27;;;;;;;;;;5037052;28;20044;-68
2020/12/21 02:44:13;;;;;;;44.85;28.40;;;;;;;;;;5036304;28;20033;-68
2020/12/21 02:46:42;;;;;;;62.13;28.10;;;;;;;;;;5035887;28;20068;-69
2020/12/21 02:49:07;;;;;;;41.38;28.83;;;;;;;;;;5038207;28;20037;-68
2020/12/21 02:51:32;;;;;;;65.72;29.20;;;;;;;;;;5032895;28;20029;-69
2020/12/21 02:53:58;;;;;;;42.83;28.92;;;;;;;;;;5036831;28;20025;-68
2020/12/21 02:56:23;;;;;;;66.43;29.75;;;;;;;;;;5037361;28;20040;-68
2020/12/21 02:58:48;;;;;;;50.22;29.00;;;;;;;;;;5035754;28;20092;-69
2020/12/21 03:01:14;;;;;;;69.53;29.80;;;;;;;;;;5035194;28;20049;-69
2020/12/21 03:03:39;;;;;;;78.85;32.42;;;;;;;;;;5035306;28;20053;-69
2020/12/21 03:06:04;;;;;;;69.05;32.60;;;;;;;;;;5034974;28;20026;-68
2020/12/21 03:08:30;;;;;;;84.60;32.97;;;;;;;;;;5035702;28;20040;-69
2020/12/21 03:10:56;;;;;;;81.63;33.45;;;;;;;;;;5034562;28;20048;-69
2020/12/21 03:13:21;;;;;;;86.90;33.85;;;;;;;;;;5036978;28;20037;-68
2020/12/21 03:15:46;;;;;;;92.82;33.50;;;;;;;;;;5030259;28;20044;-69
2020/12/21 03:18:11;;;;;;;87.00;34.22;;;;;;;;;;5037436;28;20067;-68
2020/12/21 03:20:37;;;;;;;79.63;33.65;;;;;;;;;;5035361;28;22439;-69
2020/12/21 03:23:02;;;;;;;88.38;35.08;;;;;;;;;;5034212;28;20500;-69
2020/12/21 03:25:28;;;;;;;56.20;33.03;;;;;;;;;;5035323;28;20040;-69
2020/12/21 03:27:53;;;;;;;67.25;31.90;;;;;;;;;;5035152;28;20030;-69
2020/12/21 03:30:18;;;;;;;81.88;32.28;;;;;;;;;;5035166;28;20064;-70
2020/12/21 03:32:44;;;;;;;89.53;34.55;;;;;;;;;;5034865;28;20030;-69
2020/12/21 03:35:09;;;;;;;51.67;31.13;;;;;;;;;;5034056;28;20040;-69
2020/12/21 03:37:35;;;;;;;87.07;35.50;;;;;;;;;;5034169;28;20412;-69
2020/12/21 03:40:03;;;;;;;64.90;33.80;;;;;;;;;;5035263;28;20025;-69
2020/12/21 03:42:29;;;;;;;71.00;33.63;;;;;;;;;;5034721;28;20065;-69
2020/12/21 03:44:54;;;;;;;59.15;31.35;;;;;;;;;;5033214;28;20041;-69
2020/12/21 03:47:19;;;;;;;61.63;30.90;;;;;;;;;;5036005;28;20025;-62
2020/12/21 03:49:45;;;;;;;58.28;31.52;;;;;;;;;;5034197;28;20033;-62
2020/12/21 03:52:10;;;;;;;57.50;31.98;;;;;;;;;;5036057;28;20028;-62
2020/12/21 03:54:36;;;;;;;69.60;30.90;;;;;;;;;;5031902;28;20069;-62
2020/12/21 03:57:01;;;;;;;51.10;29.95;;;;;;;;;;5034313;28;20381;-62
2020/12/21 03:59:26;;;;;;;52.63;28.05;;;;;;;;;;5035396;28;20036;-62
2020/12/21 04:01:52;;;;;;;49.38;28.13;;;;;;;;;;5035301;28;20094;-62
2020/12/21 04:04:17;;;;;;;50.85;27.50;;;;;;;;;;5034550;28;20049;-62
2020/12/21 04:06:42;;;;;;;48.65;27.33;;;;;;;;;;5033845;28;20025;-62
2020/12/21 04:09:08;;;;;;;45.80;27.88;;;;;;;;;;5034736;28;20044;-62
2020/12/21 04:11:33;;;;;;;48.85;26.88;;;;;;;;;;5035444;28;20048;-61
2020/12/21 04:13:58;;;;;;;42.33;27.38;;;;;;;;;;5035175;28;20033;-61
2020/12/21 04:16:24;;;;;;;46.85;26.00;;;;;;;;;;5034824;28;20649;-62
2020/12/21 04:18:49;;;;;;;38.13;23.25;;;;;;;;;;5034364;28;20329;-62
2020/12/21 04:21:15;;;;;;;38.75;23.55;;;;;;;;;;5035460;28;20131;-62
2020/12/21 04:23:40;;;;;;;34.45;21.83;;;;;;;;;;5031004;28;20159;-61
2020/12/21 04:26:06;;;;;;;40.58;24.13;;;;;;;;;;5034653;28;20094;-62
2020/12/21 04:28:32;;;;;;;39.88;23.90;;;;;;;;;;5032800;28;20486;-62
2020/12/21 04:31:05;;;;;;;40.10;23.27;;;;;;;;;;5034408;28;20045;-62
2020/12/21 04:33:31;;;;;;;43.50;24.58;;;;;;;;;;5035481;28;20032;-62
2020/12/21 04:35:56;;;;;;;36.05;23.10;;;;;;;;;;5034980;28;20021;-61
2020/12/21 04:38:21;;;;;;;40.25;22.05;;;;;;;;;;5030218;28;20082;-62
2020/12/21 04:40:56;;;;;;;37.28;22.17;;;;;;;;;;5034765;28;20467;-62
2020/12/21 04:43:22;;;;;;;36.35;22.08;;;;;;;;;;5034187;28;20041;-62
2020/12/21 04:45:52;;;;;;;36.72;23.52;;;;;;;;;;5033185;28;20036;-62
2020/12/21 04:48:20;;;;;;;34.95;22.20;;;;;;;;;;5035922;28;20043;-62
2020/12/21 04:50:45;;;;;;;31.77;21.83;;;;;;;;;;5029922;28;20047;-62
2020/12/21 04:53:12;;;;;;;37.35;21.80;;;;;;;;;;5036584;28;20041;-62
2020/12/21 04:55:37;;;;;;;33.95;21.95;;;;;;;;;;5031932;28;20033;-62
2020/12/21 04:58:04;;;;;;;35.20;22.25;;;;;;;;;;5034178;28;20029;-61
2020/12/21 05:00:32;;;;;;;33.83;23.20;;;;;;;;;;5050918;28;20474;-62
2020/12/21 05:02:58;;;;;;;45.78;23.73;;;;;;;;;;5034318;28;20564;-62
2020/12/21 05:05:36;;;;;;;41.60;24.15;;;;;;;;;;5032228;28;20025;-61
2020/12/21 05:08:18;;;;;;;49.65;25.10;;;;;;;;;;5032812;28;20107;-61
2020/12/21 05:10:45;;;;;;;32.78;23.92;;;;;;;;;;5034916;28;20523;-62
2020/12/21 05:13:12;;;;;;;36.80;22.65;;;;;;;;;;5035480;28;20115;-62
2020/12/21 05:15:38;;;;;;;40.83;23.88;;;;;;;;;;5027907;28;20037;-62
2020/12/21 05:18:11;;;;;;;40.15;24.05;;;;;;;;;;5034406;28;20029;-62
2020/12/21 05:20:40;;;;;;;38.00;24.23;;;;;;;;;;5034058;28;20029;-62
2020/12/21 05:23:15;;;;;;;39.92;24.90;;;;;;;;;;5031468;28;20036;-62
2020/12/21 05:25:42;;;;;;;42.30;24.23;;;;;;;;;;5033060;28;20040;-62
2020/12/21 05:28:14;;;;;;;36.20;23.10;;;;;;;;;;5037897;28;20138;-62
2020/12/21 05:30:55;;;;;;;32.63;23.90;;;;;;;;;;5036807;28;20078;-62
2020/12/21 05:33:21;;;;;;;35.38;24.05;;;;;;;;;;5037629;28;20063;-62
2020/12/21 05:35:47;;;;;;;42.70;22.58;;;;;;;;;;5037420;28;20045;-61
2020/12/21 05:38:27;;;;;;;35.17;24.60;;;;;;;;;;5038237;28;20029;-62
2020/12/21 05:40:54;;;;;;;37.83;25.40;;;;;;;;;;5032535;28;20037;-62
2020/12/21 05:43:28;;;;;;;35.28;23.15;;;;;;;;;;5039195;28;20027;-62
2020/12/21 05:46:24;;;;;;;35.45;23.48;;;;;;;;;;5036873;28;20534;-62
2020/12/21 05:48:59;;;;;;;36.15;23.73;;;;;;;;;;5022257;28;20052;-62
2020/12/21 05:51:30;;;;;;;36.40;23.33;;;;;;;;;;5037419;28;20541;-62
2020/12/21 05:53:57;;;;;;;36.25;22.80;;;;;;;;;;5037668;28;20034;-62
2020/12/21 05:56:25;;;;;;;39.90;24.67;;;;;;;;;;5036757;28;20099;-61
2020/12/21 05:58:51;;;;;;;40.28;24.92;;;;;;;;;;5034651;28;20104;-62
2020/12/21 06:01:17;;;;;;;43.38;24.92;;;;;;;;;;5038894;28;20037;-62
2020/12/21 06:04:03;;;;;;;41.35;24.58;;;;;;;;;;5036463;28;20036;-62
2020/12/21 06:06:30;;;;;;;38.78;24.75;;;;;;;;;;5036826;28;20041;-62
2020/12/21 06:09:00;;;;;;;44.35;25.80;;;;;;;;;;5034614;28;20028;-62
2020/12/21 06:11:31;;;;;;;39.72;26.70;;;;;;;;;;5036243;28;20102;-62
2020/12/21 06:14:05;;;;;;;43.60;26.27;;;;;;;;;;5036409;28;20041;-62
2020/12/21 06:16:32;;;;;;;49.08;25.05;;;;;;;;;;5031434;28;20060;-61
2020/12/21 06:19:06;;;;;;;40.83;26.98;;;;;;;;;;5034154;28;20489;-68
2020/12/21 06:21:37;;;;;;;34.95;24.80;;;;;;;;;;5034861;28;20494;-68
2020/12/21 06:24:03;;;;;;;36.63;24.75;;;;;;;;;;5032816;28;20104;-69
2020/12/21 06:26:33;;;;;;;39.17;26.08;;;;;;;;;;5034795;28;20121;-69
2020/12/21 06:29:09;;;;;;;36.38;26.27;;;;;;;;;;5034407;28;20356;-68
2020/12/21 06:31:54;;;;;;;70.13;29.90;;;;;;;;;;5034786;28;20106;-68
2020/12/21 06:34:29;;;;;;;42.88;26.83;;;;;;;;;;5036155;28;20092;-69
2020/12/21 06:37:10;;;;;;;47.33;25.38;;;;;;;;;;5037482;28;20033;-69
2020/12/21 06:39:36;;;;;;;;;;;;;;;;;;5035372;28;20400;-69
2020/12/21 06:42:05;;;;;;;88.88;28.40;;;;;;;;;;5034243;28;20012;-69
2020/12/21 06:44:32;;;;;;;43.35;26.48;;;;;;;;;;5032349;28;20094;-69
2020/12/21 06:46:58;;;;;;;38.95;26.83;;;;;;;;;;5032569;28;20040;-69
2020/12/21 06:49:24;;;;;;;64.70;28.98;;;;;;;;;;5031997;28;20033;-68
2020/12/21 06:51:50;;;;;;;49.97;28.65;;;;;;;;;;5033688;28;20033;-69
2020/12/21 06:54:17;;;;;;;40.63;24.70;;;;;;;;;;5033053;28;20627;-69
2020/12/21 06:56:48;;;;;;;50.28;26.02;;;;;;;;;;5034035;28;20105;-69
2020/12/21 06:59:15;;;;;;;45.00;27.17;;;;;;;;;;5035499;28;20029;-69
2020/12/21 07:01:42;;;;;;;44.22;26.60;;;;;;;;;;5031241;28;20035;-68
2020/12/21 07:04:18;;;;;;;40.45;26.67;;;;;;;;;;5035276;28;20037;-68
2020/12/21 07:06:45;;;;;;;51.03;26.10;;;;;;;;;;5032742;28;20029;-67
2020/12/21 07:09:12;;;;;;;33.53;25.73;;;;;;;;;;5036265;28;20033;-67
2020/12/21 07:11:39;;;;;;;47.30;26.65;;;;;;;;;;5033890;28;20068;-67
2020/12/21 07:14:05;;;;;;;43.88;26.58;;;;;;;;;;5032326;28;20037;-67
2020/12/21 07:16:30;;;;;;;41.60;25.80;;;;;;;;;;5026260;28;20037;-68
2020/12/21 07:18:56;;;;;;;67.15;28.38;;;;;;;;;;5033303;28;20056;-67
2020/12/21 07:21:21;;;;;;;63.20;27.70;;;;;;;;;;5032084;28;20453;-67
2020/12/21 07:23:47;;;;;;;40.40;25.73;;;;;;;;;;5033931;28;20048;-67
2020/12/21 07:26:14;;;;;;;47.38;25.88;;;;;;;;;;5036517;28;20858;-67
2020/12/21 07:28:49;;;;;;;62.30;25.52;;;;;;;;;;5034070;28;20049;-67
2020/12/21 07:31:16;;;;;;;46.83;27.25;;;;;;;;;;5033063;28;20041;-67
2020/12/21 07:33:48;;;;;;;64.38;25.65;;;;;;;;;;5032773;28;20033;-67
2020/12/21 07:36:14;;;;;;;64.90;24.45;;;;;;;;;;5036525;28;20037;-61
2020/12/21 07:38:40;;;;;;;43.08;25.05;;;;;;;;;;5033870;28;20510;-61
2020/12/21 07:41:05;;;;;;;34.25;25.83;;;;;;;;;;5035535;28;20037;-61
2020/12/21 07:43:37;;;;;;;40.80;25.40;;;;;;;;;;5035381;28;20372;-62
2020/12/21 07:46:05;;;;;;;34.45;25.52;;;;;;;;;;5037061;28;20657;-61
2020/12/21 07:48:32;;;;;;;32.28;23.55;;;;;;;;;;5033321;28;20037;-61
2020/12/21 07:51:01;;;;;;;33.05;26.35;;;;;;;;;;5035800;28;20052;-61
2020/12/21 07:53:30;;;;;;;31.73;24.27;;;;;;;;;;5035755;28;20045;-61
2020/12/21 07:55:57;;;;;;;35.20;25.45;;;;;;;;;;5032598;28;20428;-62
2020/12/21 07:58:22;;;;;;;51.25;26.23;;;;;;;;;;5036171;28;20034;-61
2020/12/21 08:00:58;;;;;;;51.75;27.75;;;;;;;;;;5034670;28;20033;-61
2020/12/21 08:03:25;;;;;;;51.88;26.15;;;;;;;;;;5034575;28;20080;-61
2020/12/21 08:06:24;;;;;;;57.80;28.13;;;;;;;;;;5034371;28;20125;-61
2020/12/21 08:08:50;;;;;;;48.15;24.30;;;;;;;;;;5030678;28;20445;-61
2020/12/21 08:11:18;;;;;;;100.25;28.00;;;;;;;;;;5036800;28;20043;-61
2020/12/21 08:13:47;;;;;;;91.30;27.42;;;;;;;;;;5025252;28;20064;-62
2020/12/21 08:16:13;;;;;;;78.85;27.20;;;;;;;;;;5035385;28;20157;-61
2020/12/21 08:18:38;;;;;;;75.55;26.50;;;;;;;;;;5032118;28;20460;-61
2020/12/21 08:21:04;;;;;;;70.05;24.70;;;;;;;;;;5030545;28;20029;-61
2020/12/21 08:23:31;;;;;;;87.50;26.20;;;;;;;;;;5034389;28;20047;-61
2020/12/21 08:25:58;;;;;;;35.28;24.10;;;;;;;;;;5035100;28;20037;-61
2020/12/21 08:28:25;;;;;;;41.22;23.83;;;;;;;;;;5034157;28;20064;-61
2020/12/21 08:30:50;;;;;;;52.88;35.67;;;;;;;;;;5031381;28;20033;-61
2020/12/21 08:33:16;;;;;;;39.25;30.10;;;;;;;;;;5037231;28;20137;-61
2020/12/21 08:35:41;;;;;;;32.42;23.27;;;;;;;;;;5034341;28;20025;-61
2020/12/21 08:38:14;;;;;;;40.47;23.73;;;;;;;;;;5032135;28;20445;-61
2020/12/21 08:40:40;;;;;;;30.60;22.40;;;;;;;;;;5033526;28;20113;-61
2020/12/21 08:43:06;;;;;;;29.42;21.83;;;;;;;;;;5035014;28;20029;-62
2020/12/21 08:45:36;;;;;;;32.25;23.25;;;;;;;;;;5032964;28;20080;-61
2020/12/21 08:48:02;;;;;;;30.90;22.42;;;;;;;;;;5035649;28;20034;-61
2020/12/21 08:50:27;;;;;;;34.08;22.67;;;;;;;;;;5034428;28;20099;-61
2020/12/21 08:52:53;;;;;;;31.27;24.25;;;;;;;;;;5034173;28;20121;-61
2020/12/21 08:55:18;;;;;;;27.77;21.33;;;;;;;;;;5035912;28;20116;-61
2020/12/21 08:57:43;;;;;;;36.15;22.33;;;;;;;;;;5034788;28;20068;-61
2020/12/21 09:00:09;;;;;;;31.13;20.33;;;;;;;;;;5034343;28;20112;-61
2020/12/21 09:02:34;;;;;;;26.27;20.17;;;;;;;;;;5031424;28;20065;-61
2020/12/21 09:05:00;;;;;;;23.70;19.27;;;;;;;;;;5035322;28;20087;-61
2020/12/21 09:07:25;;;;;;;23.27;17.75;;;;;;;;;;5034054;28;20123;-61
2020/12/21 09:09:50;;;;;;;21.55;17.90;;;;;;;;;;5033939;28;20468;-61
2020/12/21 09:12:15;;;;;;;21.30;17.45;;;;;;;;;;5031961;28;20056;-61
2020/12/21 09:14:41;;;;;;;19.77;17.70;;;;;;;;;;5033261;28;20040;-61
2020/12/21 09:17:06;;;;;;;21.00;18.80;;;;;;;;;;5034512;28;20060;-61
2020/12/21 09:19:32;;;;;;;22.05;17.48;;;;;;;;;;5032891;28;20025;-61
2020/12/21 09:21:57;;;;;;;28.33;19.02;;;;;;;;;;5032108;28;20029;-61
2020/12/21 09:24:22;;;;;;;21.80;18.02;;;;;;;;;;5033657;28;20036;-61
2020/12/21 09:26:48;;;;;;;21.67;16.95;;;;;;;;;;5032565;28;20115;-61
2020/12/21 09:29:13;;;;;;;28.10;18.80;;;;;;;;;;5034844;28;20459;-61
2020/12/21 09:31:38;;;;;;;25.15;18.85;;;;;;;;;;5029482;28;20041;-61
2020/12/21 09:34:03;;;;;;;20.63;17.55;;;;;;;;;;5034053;28;20361;-61
2020/12/21 09:36:31;;;;;;;27.75;21.73;;;;;;;;;;5032723;28;20028;-61
2020/12/21 09:38:56;;;;;;;27.25;21.30;;;;;;;;;;5033581;28;20804;-61
2020/12/21 09:41:21;;;;;;;27.48;18.63;;;;;;;;;;5034478;28;20037;-61
2020/12/21 09:43:48;;;;;;;27.58;17.65;;;;;;;;;;5032384;28;20029;-61
2020/12/21 09:46:32;;;;;;;28.73;17.58;;;;;;;;;;5036410;28;20046;-61
2020/12/21 09:49:03;;;;;;;20.33;17.67;;;;;;;;;;5028573;28;20037;-61
2020/12/21 09:51:28;;;;;;;26.02;17.55;;;;;;;;;;5034081;28;20074;-61
2020/12/21 09:53:53;;;;;;;19.65;16.67;;;;;;;;;;5036405;28;20033;-61
2020/12/21 09:56:19;;;;;;;24.35;15.82;;;;;;;;;;5031146;28;20471;-61
2020/12/21 09:58:45;;;;;;;22.23;17.50;;;;;;;;;;5033126;28;20025;-61
2020/12/21 10:01:11;;;;;;;19.35;17.02;;;;;;;;;;5034097;28;20029;-61
2020/12/21 10:03:39;;;;;;;22.38;17.40;;;;;;;;;;5031995;28;20353;-61
2020/12/21 10:06:09;;;;;;;25.35;16.83;;;;;;;;;;5033952;28;20664;-61
2020/12/21 10:08:36;;;;;;;22.38;17.13;;;;;;;;;;5031668;28;20041;-61
2020/12/21 10:11:01;;;;;;;21.63;17.92;;;;;;;;;;5032785;28;20025;-61
2020/12/21 10:13:26;;;;;;;20.45;17.23;;;;;;;;;;5030736;28;20506;-61
2020/12/21 10:15:52;;;;;;;21.80;17.42;;;;;;;;;;5036084;28;20033;-61
2020/12/21 10:18:17;;;;;;;25.90;17.98;;;;;;;;;;5038467;28;20047;-61
2020/12/21 10:20:43;;;;;;;21.30;17.55;;;;;;;;;;5034280;28;20033;-61
2020/12/21 10:23:09;;;;;;;24.20;17.70;;;;;;;;;;5038422;28;20040;-61
2020/12/21 10:25:34;;;;;;;20.38;17.42;;;;;;;;;;5037011;28;20090;-61
2020/12/21 10:27:59;;;;;;;25.98;18.10;;;;;;;;;;5038642;28;20044;-61
2020/12/21 10:30:25;;;;;;;25.95;18.65;;;;;;;;;;5032225;28;20033;-61
2020/12/21 10:32:50;;;;;;;21.50;17.65;;;;;;;;;;5036154;28;20085;-61
2020/12/21 10:35:15;;;;;;;25.00;18.10;;;;;;;;;;5037196;28;20047;-61
2020/12/21 10:37:41;;;;;;;26.58;18.25;;;;;;;;;;5034055;28;20029;-61
2020/12/21 10:40:06;;;;;;;24.48;17.75;;;;;;;;;;5037871;28;20044;-61
2020/12/21 10:42:31;;;;;;;22.25;17.33;;;;;;;;;;5034523;28;20040;-61
2020/12/21 10:44:57;;;;;;;17.60;14.95;;;;;;;;;;5037072;28;20060;-61
2020/12/21 10:47:22;;;;;;;22.98;16.15;;;;;;;;;;5037417;28;20054;-61
2020/12/21 10:49:47;;;;;;;19.67;15.13;;;;;;;;;;5034198;28;20037;-61
2020/12/21 10:52:13;;;;;;;16.02;14.32;;;;;;;;;;5037380;28;20471;-59
2020/12/21 10:54:38;;;;;;;19.30;15.00;;;;;;;;;;5035785;28;20029;-60
2020/12/21 10:57:06;;;;;;;18.60;16.55;;;;;;;;;;5039468;28;20487;-60
2020/12/21 10:59:31;;;;;;;18.60;14.70;;;;;;;;;;5034106;28;20034;-60
2020/12/21 11:01:56;;;;;;;17.10;15.32;;;;;;;;;;5035308;28;20022;-60
2020/12/21 11:04:22;;;;;;;18.38;14.25;;;;;;;;;;5037339;28;20041;-59
2020/12/21 11:06:47;;;;;;;16.10;14.05;;;;;;;;;;5034158;28;20033;-60
2020/12/21 11:09:12;;;;;;;17.23;13.60;;;;;;;;;;5036293;28;20037;-60
2020/12/21 11:11:38;;;;;;;16.90;13.30;;;;;;;;;;5035397;28;20047;-60
2020/12/21 11:14:04;;;;;;;17.25;12.75;;;;;;;;;;5036178;28;20033;-60
2020/12/21 11:16:30;;;;;;;17.05;13.00;;;;;;;;;;5025962;28;20037;-60
2020/12/21 11:18:56;;;;;;;17.17;12.35;;;;;;;;;;5034567;28;20021;-60
2020/12/21 11:21:21;;;;;;;20.25;13.30;;;;;;;;;;5037008;28;20087;-60
2020/12/21 11:23:47;;;;;;;19.25;11.98;;;;;;;;;;5038752;28;20037;-60
2020/12/21 11:26:14;;;;;;;15.45;12.50;;;;;;;;;;5038143;28;20041;-60
2020/12/21 11:28:39;;;;;;;16.08;12.73;;;;;;;;;;5034497;28;20048;-61
2020/12/21 11:31:05;;;;;;;16.00;12.45;;;;;;;;;;5035804;28;20030;-60
2020/12/21 11:33:31;;;;;;;16.10;12.95;;;;;;;;;;5034222;28;20033;-60
2020/12/21 11:35:57;;;;;;;17.20;12.68;;;;;;;;;;5035141;28;20026;-61
2020/12/21 11:38:23;;;;;;;14.38;11.75;;;;;;;;;;5035709;28;20070;-60
2020/12/21 11:40:48;;;;;;;19.23;12.75;;;;;;;;;;5029391;28;20076;-61
2020/12/21 11:43:14;;;;;;;23.40;12.65;;;;;;;;;;5035813;28;20695;-60
2020/12/21 11:45:41;;;;;;;20.25;12.70;;;;;;;;;;5032817;28;20033;-62
2020/12/21 11:48:06;;;;;;;13.95;10.77;;;;;;;;;;5035637;28;20056;-59
2020/12/21 11:50:31;;;;;;;13.52;10.98;;;;;;;;;;5033322;28;20021;-60
2020/12/21 11:52:57;;;;;;;13.48;10.48;;;;;;;;;;5032663;28;20037;-60
2020/12/21 11:55:22;;;;;;;15.00;10.15;;;;;;;;;;5032979;28;20021;-60
2020/12/21 11:57:47;;;;;;;15.98;10.00;;;;;;;;;;5032976;28;21396;-60
2020/12/21 12:00:13;;;;;;;16.42;8.65;;;;;;;;;;5033395;28;20491;-58
2020/12/21 12:02:38;;;;;;;11.57;8.95;;;;;;;;;;5033198;28;20484;-61
2020/12/21 12:05:04;;;;;;;13.43;9.55;;;;;;;;;;5032528;28;20044;-61
2020/12/21 12:07:29;;;;;;;11.32;8.68;;;;;;;;;;5033208;28;20569;-61
2020/12/21 12:09:54;;;;;;;14.80;9.02;;;;;;;;;;5032456;28;20034;-61
2020/12/21 12:12:20;;;;;;;13.70;7.32;;;;;;;;;;5031046;28;20032;-60
2020/12/21 12:14:45;;;;;;;12.15;6.90;;;;;;;;;;5029498;28;20460;-60
2020/12/21 12:17:10;;;;;;;12.25;5.75;;;;;;;;;;5033524;28;20036;-60
2020/12/21 12:19:35;;;;;;;10.45;5.78;;;;;;;;;;5030467;28;20030;-60
2020/12/21 12:22:01;;;;;;;8.98;5.47;;;;;;;;;;5032401;28;20052;-59
2020/12/21 12:24:26;;;;;;;10.77;5.97;;;;;;;;;;5034136;28;20044;-61
2020/12/21 12:26:53;;;;;;;7.78;5.28;;;;;;;;;;5033602;28;20044;-62
2020/12/21 12:29:19;;;;;;;9.98;5.97;;;;;;;;;;5018517;28;20345;-62
2020/12/21 12:31:45;;;;;;;8.50;5.75;;;;;;;;;;5033131;28;20108;-62
2020/12/21 12:34:10;;;;;;;13.20;6.30;;;;;;;;;;5035490;28;20119;-61
2020/12/21 12:36:36;;;;;;;7.95;5.70;;;;;;;;;;5036449;28;20444;-61
2020/12/21 12:39:02;;;;;;;10.73;5.72;;;;;;;;;;5035416;28;20036;-62
2020/12/21 12:41:28;;;;;;;10.60;6.45;;;;;;;;;;5032284;28;20056;-62
2020/12/21 12:43:53;;;;;;;10.57;5.28;;;;;;;;;;5034693;28;20099;-62
2020/12/21 12:46:19;;;;;;;12.25;6.75;;;;;;;;;;5034373;28;20036;-62
2020/12/21 12:48:44;;;;;;;11.80;6.22;;;;;;;;;;5034108;28;20601;-62
2020/12/21 12:51:09;;;;;;;8.38;6.00;;;;;;;;;;5035485;28;20662;-61
2020/12/21 12:53:36;;;;;;;8.43;5.82;;;;;;;;;;5034035;28;20037;-61
2020/12/21 12:56:01;;;;;;;11.77;6.43;;;;;;;;;;5034821;28;20037;-62
2020/12/21 12:58:27;;;;;;;10.90;6.15;;;;;;;;;;5025585;28;20054;-61
2020/12/21 13:00:52;;;;;;;8.70;6.82;;;;;;;;;;5032866;28;20025;-60
2020/12/21 13:03:18;;;;;;;13.88;7.40;;;;;;;;;;5035366;28;20107;-61
2020/12/21 13:05:44;;;;;;;12.23;6.43;;;;;;;;;;5029685;28;21628;-62
2020/12/21 13:08:09;;;;;;;9.82;6.07;;;;;;;;;;5027964;28;20448;-62
2020/12/21 13:10:35;;;;;;;9.90;5.97;;;;;;;;;;5029911;28;20091;-62
2020/12/21 13:13:00;;;;;;;7.72;5.53;;;;;;;;;;5029055;28;20021;-61
2020/12/21 13:15:25;;;;;;;7.95;6.10;;;;;;;;;;5030237;28;20312;-60
2020/12/21 13:17:51;;;;;;;10.38;5.97;;;;;;;;;;5030742;28;20040;-61
2020/12/21 13:20:16;;;;;;;12.85;5.57;;;;;;;;;;5031216;28;20492;-62
2020/12/21 13:22:42;;;;;;;10.38;5.82;;;;;;;;;;5029418;28;20033;-61
2020/12/21 13:25:07;;;;;;;9.52;5.55;;;;;;;;;;5029615;28;20137;-60
2020/12/21 13:27:32;;;;;;;8.05;4.53;;;;;;;;;;5031449;28;20033;-61
2020/12/21 13:29:58;;;;;;;7.20;4.95;;;;;;;;;;5030513;28;20040;-61
2020/12/21 13:32:25;;;;;;;7.50;4.43;;;;;;;;;;5024819;28;20120;-61
2020/12/21 13:34:50;;;;;;;6.50;4.30;;;;;;;;;;5032807;28;20057;-62
2020/12/21 13:37:15;;;;;;;6.53;4.05;;;;;;;;;;5033165;28;20175;-61
2020/12/21 13:39:41;;;;;;;9.57;4.55;;;;;;;;;;5030290;28;20025;-61
2020/12/21 13:42:06;;;;;;;9.88;5.78;;;;;;;;;;5035199;28;20591;-62
2020/12/21 13:44:32;;;;;;;7.22;4.30;;;;;;;;;;5034922;28;20072;-60
2020/12/21 13:46:58;;;;;;;8.45;4.30;;;;;;;;;;5034104;28;20033;-61
2020/12/21 13:49:23;;;;;;;7.07;4.53;;;;;;;;;;5036836;28;20037;-60
2020/12/21 13:51:49;;;;;;;15.73;4.88;;;;;;;;;;5036267;28;20053;-60
2020/12/21 13:54:14;;;;;;;5.88;3.97;;;;;;;;;;5029617;28;20033;-60
2020/12/21 13:56:39;;;;;;;8.80;4.47;;;;;;;;;;5029184;28;20031;-63
2020/12/21 13:59:05;;;;;;;11.25;4.85;;;;;;;;;;5035152;28;20096;-61
2020/12/21 14:01:30;;;;;;;9.10;4.72;;;;;;;;;;5033145;28;20036;-60
2020/12/21 14:03:55;;;;;;;6.57;3.83;;;;;;;;;;5036291;28;20550;-61
2020/12/21 14:06:21;;;;;;;9.65;4.88;;;;;;;;;;5036721;28;20037;-61
2020/12/21 14:08:46;;;;;;;8.07;3.70;;;;;;;;;;5035807;28;20029;-61
2020/12/21 14:11:12;;;;;;;7.68;4.50;;;;;;;;;;5033480;28;20124;-61
2020/12/21 14:13:39;;;;;;;10.98;4.82;;;;;;;;;;5037041;28;20669;-61
2020/12/21 14:16:14;;;;;;;7.70;4.88;;;;;;;;;;5030410;28;20087;-69
2020/12/21 14:18:48;;;;;;;10.20;5.28;;;;;;;;;;5034634;28;20037;-68